This is the latest recevied weather packets stored in our database for station/object K5YNC. If no packets are shown the sender has not sent any weather packets the latest 10 day(s).
| Time | Temp. | Humidity | Pressure | Rain* | Wind** | Luminosity | Snow |
|---|---|---|---|---|---|---|---|
| 1777084126 | 20.56° C | 83% | 1008.4 hPa | 0 mm | - | 0 W/m² | - |
| 1777083823 | 21.11° C | 82% | 1008.5 hPa | 0 mm | - | 0 W/m² | - |
| 1777083520 | 21.11° C | 82% | 1008.2 hPa | 0 mm | - | 0 W/m² | - |
| 1777083216 | 21.11° C | 81% | 1008.1 hPa | 0 mm | - | 0 W/m² | - |
| 1777082916 | 21.67° C | 81% | 1008 hPa | 0 mm | - | 0 W/m² | - |
| 1777082612 | 21.67° C | 80% | 1008.2 hPa | 0 mm | - | 0 W/m² | - |
| 1777082307 | 21.67° C | 80% | 1008 hPa | 0 mm | - | 0 W/m² | - |
| 1777082002 | 22.22° C | 79% | 1007.7 hPa | 0 mm | - | 0 W/m² | - |
| 1777081697 | 22.22° C | 79% | 1007.8 hPa | 0 mm | - | 0 W/m² | - |
| 1777081393 | 22.78° C | 79% | 1007.8 hPa | 0 mm | - | 0 W/m² | - |
| 1777081090 | 22.78° C | 78% | 1007.7 hPa | 0 mm | - | 0 W/m² | - |
| 1777080788 | 22.78° C | 79% | 1007.5 hPa | 0 mm | - | 0 W/m² | - |
| 1777080484 | 23.33° C | 79% | 1007.5 hPa | 0 mm | - | 0 W/m² | - |
| 1777080178 | 23.33° C | 79% | 1007.4 hPa | 0 mm | - | 0 W/m² | - |
| 1777079877 | 23.33° C | 79% | 1007.1 hPa | 0 mm | - | 1 W/m² | - |
| 1777079573 | 23.89° C | 78% | 1007 hPa | 0 mm | - | 1 W/m² | - |
| 1777079269 | 23.89° C | 77% | 1007 hPa | 0 mm | - | 3 W/m² | - |
| 1777078965 | 24.44° C | 77% | 1006.7 hPa | 0 mm | - | 5 W/m² | - |
| 1777078662 | 24.44° C | 75% | 1006.6 hPa | 0 mm | - | 8 W/m² | - |
| 1777078359 | 25° C | 74% | 1006.6 hPa | 0 mm | - | 11 W/m² | - |
| 1777078058 | 25.56° C | 72% | 1006.5 hPa | 0 mm | - | 14 W/m² | - |
| 1777077753 | 26.11° C | 69% | 1006.4 hPa | 0 mm | - | 18 W/m² | - |
| 1777077452 | 26.67° C | 65% | 1006.3 hPa | 0 mm | - | 21 W/m² | - |
| 1777077150 | 27.22° C | 61% | 1006.2 hPa | 0 mm | - | 26 W/m² | - |
| 1777076850 | 27.22° C | 61% | 1006 hPa | 0 mm | - | 27 W/m² | - |
* Rain latest hour (hover to see other rain measurements)
** Current wind speed in m/s (hover to see current wind gust speed)